sensor_id;sensor_type;location;lat;lon;timestamp;pressure;altitude;pressure_sealevel;temperature;humidity
18697;BME280;22617;43.690;27.956;2023-01-29T00:04:59;98990.69;;;-0.75;91.96
18697;BME280;22617;43.690;27.956;2023-01-29T00:10:24;98987.22;;;-0.77;92.25
18697;BME280;22617;43.690;27.956;2023-01-29T00:15:29;98999.16;;;-0.76;91.82
18697;BME280;22617;43.690;27.956;2023-01-29T00:20:33;98991.63;;;-0.73;91.61
18697;BME280;22617;43.690;27.956;2023-01-29T00:25:38;98993.25;;;-0.75;92.01
18697;BME280;22617;43.690;27.956;2023-01-29T00:30:41;98995.81;;;-0.75;92.02
18697;BME280;22617;43.690;27.956;2023-01-29T00:35:45;99008.41;;;-0.80;91.88
18697;BME280;22617;43.690;27.956;2023-01-29T00:40:50;99011.91;;;-0.78;92.11
18697;BME280;22617;43.690;27.956;2023-01-29T00:46:11;99015.16;;;-0.82;92.48
18697;BME280;22617;43.690;27.956;2023-01-29T00:51:16;99012.22;;;-0.70;92.34
18697;BME280;22617;43.690;27.956;2023-01-29T00:56:21;99022.00;;;-0.81;91.83
18697;BME280;22617;43.690;27.956;2023-01-29T01:01:25;99009.19;;;-0.82;92.06
18697;BME280;22617;43.690;27.956;2023-01-29T01:06:42;99026.13;;;-0.84;92.16
18697;BME280;22617;43.690;27.956;2023-01-29T01:11:47;99016.78;;;-0.84;91.90
18697;BME280;22617;43.690;27.956;2023-01-29T01:16:52;99006.91;;;-0.96;91.63
18697;BME280;22617;43.690;27.956;2023-01-29T01:21:55;99017.22;;;-0.94;91.35
18697;BME280;22617;43.690;27.956;2023-01-29T01:27:01;99015.16;;;-1.03;91.04
18697;BME280;22617;43.690;27.956;2023-01-29T01:32:05;99031.97;;;-1.08;91.11
18697;BME280;22617;43.690;27.956;2023-01-29T01:37:08;99025.50;;;-1.20;90.81
18697;BME280;22617;43.690;27.956;2023-01-29T01:42:14;99034.56;;;-1.27;90.70
18697;BME280;22617;43.690;27.956;2023-01-29T01:47:19;99033.38;;;-1.35;91.07
18697;BME280;22617;43.690;27.956;2023-01-29T01:52:25;99037.13;;;-1.27;90.84
18697;BME280;22617;43.690;27.956;2023-01-29T01:57:31;99037.66;;;-1.34;90.62
18697;BME280;22617;43.690;27.956;2023-01-29T02:02:36;99031.69;;;-1.35;90.88
18697;BME280;22617;43.690;27.956;2023-01-29T02:07:58;99038.88;;;-1.26;90.94
18697;BME280;22617;43.690;27.956;2023-01-29T02:13:21;99027.44;;;-1.34;91.00
18697;BME280;22617;43.690;27.956;2023-01-29T02:18:25;99043.03;;;-1.28;91.35
18697;BME280;22617;43.690;27.956;2023-01-29T02:23:45;99046.41;;;-1.29;91.40
18697;BME280;22617;43.690;27.956;2023-01-29T02:29:01;99052.75;;;-1.40;91.25
18697;BME280;22617;43.690;27.956;2023-01-29T02:34:33;99051.72;;;-1.44;91.17
18697;BME280;22617;43.690;27.956;2023-01-29T02:40:04;99043.75;;;-1.51;90.84
18697;BME280;22617;43.690;27.956;2023-01-29T02:45:13;99054.06;;;-1.48;90.62
18697;BME280;22617;43.690;27.956;2023-01-29T02:50:20;99046.41;;;-1.48;90.64
18697;BME280;22617;43.690;27.956;2023-01-29T02:55:33;99050.44;;;-1.53;90.51
18697;BME280;22617;43.690;27.956;2023-01-29T03:00:42;99053.22;;;-1.49;90.33
18697;BME280;22617;43.690;27.956;2023-01-29T03:05:52;99056.59;;;-1.50;90.39
18697;BME280;22617;43.690;27.956;2023-01-29T03:11:03;99051.41;;;-1.51;90.23
18697;BME280;22617;43.690;27.956;2023-01-29T03:16:15;99066.81;;;-1.50;90.07
18697;BME280;22617;43.690;27.956;2023-01-29T03:21:24;99078.34;;;-1.58;89.78
18697;BME280;22617;43.690;27.956;2023-01-29T03:26:49;99077.63;;;-1.55;89.81
18697;BME280;22617;43.690;27.956;2023-01-29T03:32:18;99082.38;;;-1.44;89.81
18697;BME280;22617;43.690;27.956;2023-01-29T03:37:30;99082.88;;;-1.52;89.53
18697;BME280;22617;43.690;27.956;2023-01-29T03:42:48;99086.00;;;-1.58;89.64
18697;BME280;22617;43.690;27.956;2023-01-29T03:48:03;99086.38;;;-1.50;89.63
18697;BME280;22617;43.690;27.956;2023-01-29T03:53:16;99093.03;;;-1.54;89.82
18697;BME280;22617;43.690;27.956;2023-01-29T03:58:31;99098.81;;;-1.39;89.96
18697;BME280;22617;43.690;27.956;2023-01-29T04:03:42;99109.66;;;-1.44;90.00
18697;BME280;22617;43.690;27.956;2023-01-29T04:08:54;99101.22;;;-1.42;89.86
18697;BME280;22617;43.690;27.956;2023-01-29T04:14:01;99104.88;;;-1.37;89.63
18697;BME280;22617;43.690;27.956;2023-01-29T04:19:07;99120.09;;;-1.40;89.28
18697;BME280;22617;43.690;27.956;2023-01-29T04:24:14;99110.84;;;-1.36;88.84
18697;BME280;22617;43.690;27.956;2023-01-29T04:29:27;99126.19;;;-1.36;89.02
18697;BME280;22617;43.690;27.956;2023-01-29T04:34:49;99128.81;;;-1.35;89.06
18697;BME280;22617;43.690;27.956;2023-01-29T04:40:06;99129.56;;;-1.37;89.44
18697;BME280;22617;43.690;27.956;2023-01-29T04:45:18;99132.97;;;-1.37;89.74
18697;BME280;22617;43.690;27.956;2023-01-29T04:50:30;99131.31;;;-1.36;90.34
18697;BME280;22617;43.690;27.956;2023-01-29T04:55:40;99136.28;;;-1.39;90.62
18697;BME280;22617;43.690;27.956;2023-01-29T05:00:48;99144.38;;;-1.30;91.30
18697;BME280;22617;43.690;27.956;2023-01-29T05:05:57;99129.06;;;-1.28;91.46
18697;BME280;22617;43.690;27.956;2023-01-29T05:11:03;99152.75;;;-1.33;92.02
18697;BME280;22617;43.690;27.956;2023-01-29T05:16:12;99148.53;;;-1.32;92.21
18697;BME280;22617;43.690;27.956;2023-01-29T05:21:19;99151.63;;;-1.20;92.48
18697;BME280;22617;43.690;27.956;2023-01-29T05:26:24;99151.38;;;-1.26;92.79
18697;BME280;22617;43.690;27.956;2023-01-29T05:31:46;99156.09;;;-1.16;92.59
18697;BME280;22617;43.690;27.956;2023-01-29T05:36:52;99154.59;;;-1.11;92.89
18697;BME280;22617;43.690;27.956;2023-01-29T05:41:56;99165.63;;;-1.12;92.63
18697;BME280;22617;43.690;27.956;2023-01-29T05:46:59;99161.38;;;-0.92;93.02
18697;BME280;22617;43.690;27.956;2023-01-29T05:52:05;99171.53;;;-0.94;92.88
18697;BME280;22617;43.690;27.956;2023-01-29T05:57:09;99183.53;;;-0.93;92.97
18697;BME280;22617;43.690;27.956;2023-01-29T06:02:12;99177.53;;;-0.93;93.06
18697;BME280;22617;43.690;27.956;2023-01-29T06:07:18;99181.25;;;-0.86;93.15
18697;BME280;22617;43.690;27.956;2023-01-29T06:12:21;99185.69;;;-0.82;93.09
18697;BME280;22617;43.690;27.956;2023-01-29T06:17:25;99184.00;;;-0.82;93.09
18697;BME280;22617;43.690;27.956;2023-01-29T06:22:31;99193.69;;;-0.75;93.51
18697;BME280;22617;43.690;27.956;2023-01-29T06:27:36;99192.28;;;-0.68;93.11
18697;BME280;22617;43.690;27.956;2023-01-29T06:32:40;99193.34;;;-0.63;92.86
18697;BME280;22617;43.690;27.956;2023-01-29T06:37:45;99195.63;;;-0.69;92.69
18697;BME280;22617;43.690;27.956;2023-01-29T06:42:49;99204.78;;;-0.55;92.58
18697;BME280;22617;43.690;27.956;2023-01-29T06:47:53;99205.25;;;-0.64;91.97
18697;BME280;22617;43.690;27.956;2023-01-29T06:52:59;99210.78;;;-0.55;91.88
18697;BME280;22617;43.690;27.956;2023-01-29T06:58:06;99219.53;;;-0.50;91.57
18697;BME280;22617;43.690;27.956;2023-01-29T07:03:10;99215.22;;;-0.51;91.42
18697;BME280;22617;43.690;27.956;2023-01-29T07:08:15;99219.72;;;-0.45;91.73
18697;BME280;22617;43.690;27.956;2023-01-29T07:13:19;99229.84;;;-0.48;91.35
18697;BME280;22617;43.690;27.956;2023-01-29T07:18:23;99228.28;;;-0.45;91.63
18697;BME280;22617;43.690;27.956;2023-01-29T07:23:28;99237.56;;;-0.47;91.27
18697;BME280;22617;43.690;27.956;2023-01-29T07:28:35;99231.56;;;-0.47;91.34
18697;BME280;22617;43.690;27.956;2023-01-29T07:33:42;99239.72;;;-0.36;91.20
18697;BME280;22617;43.690;27.956;2023-01-29T07:38:49;99242.16;;;-0.39;90.78
18697;BME280;22617;43.690;27.956;2023-01-29T07:43:53;99250.44;;;-0.45;90.39
18697;BME280;22617;43.690;27.956;2023-01-29T07:48:57;99247.88;;;-0.45;89.69
18697;BME280;22617;43.690;27.956;2023-01-29T07:54:03;99260.28;;;-0.35;89.91
18697;BME280;22617;43.690;27.956;2023-01-29T07:59:07;99260.06;;;-0.39;89.17
18697;BME280;22617;43.690;27.956;2023-01-29T08:04:11;99264.28;;;-0.21;88.80
18697;BME280;22617;43.690;27.956;2023-01-29T08:09:17;99262.81;;;-0.35;88.32
18697;BME280;22617;43.690;27.956;2023-01-29T08:14:21;99256.91;;;-0.34;87.93
18697;BME280;22617;43.690;27.956;2023-01-29T08:19:25;99270.63;;;-0.32;87.07
18697;BME280;22617;43.690;27.956;2023-01-29T08:24:31;99268.00;;;-0.33;86.43
18697;BME280;22617;43.690;27.956;2023-01-29T08:29:54;99268.06;;;-0.32;86.36
18697;BME280;22617;43.690;27.956;2023-01-29T08:34:58;99274.94;;;-0.31;86.08
18697;BME280;22617;43.690;27.956;2023-01-29T08:40:06;99286.00;;;-0.32;85.77
18697;BME280;22617;43.690;27.956;2023-01-29T08:45:13;99281.56;;;-0.36;85.22
18697;BME280;22617;43.690;27.956;2023-01-29T08:50:17;99287.94;;;-0.26;85.43
18697;BME280;22617;43.690;27.956;2023-01-29T08:55:23;99282.78;;;-0.07;85.47
18697;BME280;22617;43.690;27.956;2023-01-29T09:00:27;99280.34;;;-0.25;84.02
18697;BME280;22617;43.690;27.956;2023-01-29T09:05:31;99285.47;;;-0.04;84.48
18697;BME280;22617;43.690;27.956;2023-01-29T09:10:36;99276.06;;;-0.05;83.71
18697;BME280;22617;43.690;27.956;2023-01-29T09:15:40;99279.78;;;-0.18;82.62
18697;BME280;22617;43.690;27.956;2023-01-29T09:20:44;99283.66;;;-0.07;82.44
18697;BME280;22617;43.690;27.956;2023-01-29T09:25:50;99283.28;;;0.05;82.17
18697;BME280;22617;43.690;27.956;2023-01-29T09:30:54;99280.69;;;0.04;81.20
18697;BME280;22617;43.690;27.956;2023-01-29T09:35:58;99283.00;;;0.18;81.75
18697;BME280;22617;43.690;27.956;2023-01-29T09:41:08;99274.28;;;0.15;81.83
18697;BME280;22617;43.690;27.956;2023-01-29T09:46:21;99270.97;;;-0.04;82.08
18697;BME280;22617;43.690;27.956;2023-01-29T09:51:31;99276.44;;;0.25;81.81
18697;BME280;22617;43.690;27.956;2023-01-29T09:56:40;99266.00;;;0.41;81.28
18697;BME280;22617;43.690;27.956;2023-01-29T10:01:52;99274.63;;;0.43;80.77
18697;BME280;22617;43.690;27.956;2023-01-29T10:07:08;99269.19;;;0.35;80.80
18697;BME280;22617;43.690;27.956;2023-01-29T10:12:29;99259.97;;;0.40;80.87
18697;BME280;22617;43.690;27.956;2023-01-29T10:17:52;99269.53;;;0.44;80.40
18697;BME280;22617;43.690;27.956;2023-01-29T10:23:08;99272.94;;;0.23;80.29
18697;BME280;22617;43.690;27.956;2023-01-29T10:28:20;99273.38;;;0.13;80.06
18697;BME280;22617;43.690;27.956;2023-01-29T10:33:32;99268.19;;;0.11;80.22
18697;BME280;22617;43.690;27.956;2023-01-29T10:39:03;99258.66;;;0.29;80.04
18697;BME280;22617;43.690;27.956;2023-01-29T10:44:34;99256.78;;;0.46;79.64
18697;BME280;22617;43.690;27.956;2023-01-29T10:49:55;99256.03;;;0.49;78.58
18697;BME280;22617;43.690;27.956;2023-01-29T10:55:17;99246.66;;;0.49;78.72
18697;BME280;22617;43.690;27.956;2023-01-29T11:00:28;99244.59;;;0.61;79.03
18697;BME280;22617;43.690;27.956;2023-01-29T11:05:37;99240.25;;;0.60;78.38
18697;BME280;22617;43.690;27.956;2023-01-29T11:10:51;99235.47;;;0.47;78.59
18697;BME280;22617;43.690;27.956;2023-01-29T11:15:58;99222.91;;;0.75;78.16
18697;BME280;22617;43.690;27.956;2023-01-29T11:21:03;99221.72;;;0.67;77.68
18697;BME280;22617;43.690;27.956;2023-01-29T11:26:10;99221.72;;;0.67;77.71
18697;BME280;22617;43.690;27.956;2023-01-29T11:31:39;99225.34;;;0.72;77.66
18697;BME280;22617;43.690;27.956;2023-01-29T11:36:43;99218.81;;;0.58;76.62
18697;BME280;22617;43.690;27.956;2023-01-29T11:41:49;99210.97;;;0.76;76.21
18697;BME280;22617;43.690;27.956;2023-01-29T11:47:06;99209.44;;;0.81;75.09
18697;BME280;22617;43.690;27.956;2023-01-29T11:52:14;99209.53;;;0.84;74.72
18697;BME280;22617;43.690;27.956;2023-01-29T11:57:29;99210.50;;;0.86;75.42
18697;BME280;22617;43.690;27.956;2023-01-29T12:02:40;99201.88;;;0.62;74.81
18697;BME280;22617;43.690;27.956;2023-01-29T12:07:46;99206.22;;;0.64;74.44
18697;BME280;22617;43.690;27.956;2023-01-29T12:13:03;99202.78;;;0.64;74.35
18697;BME280;22617;43.690;27.956;2023-01-29T12:18:14;99204.25;;;0.79;74.64
18697;BME280;22617;43.690;27.956;2023-01-29T12:23:29;99215.56;;;0.84;74.02
18697;BME280;22617;43.690;27.956;2023-01-29T12:28:46;99211.06;;;0.79;74.13
18697;BME280;22617;43.690;27.956;2023-01-29T12:34:00;99215.56;;;0.84;73.96
18697;BME280;22617;43.690;27.956;2023-01-29T12:39:08;99216.25;;;0.80;73.64
18697;BME280;22617;43.690;27.956;2023-01-29T12:44:18;99215.13;;;0.96;73.55
18697;BME280;22617;43.690;27.956;2023-01-29T12:49:26;99211.84;;;0.76;73.15
18697;BME280;22617;43.690;27.956;2023-01-29T12:54:35;99223.16;;;0.81;73.31
18697;BME280;22617;43.690;27.956;2023-01-29T12:59:43;99228.50;;;0.65;73.58
18697;BME280;22617;43.690;27.956;2023-01-29T13:04:56;99233.84;;;0.49;74.37
18697;BME280;22617;43.690;27.956;2023-01-29T13:10:06;99236.97;;;0.42;74.16
18697;BME280;22617;43.690;27.956;2023-01-29T13:15:19;99245.75;;;0.26;74.75
18697;BME280;22617;43.690;27.956;2023-01-29T13:20:29;99239.84;;;0.29;74.81
18697;BME280;22617;43.690;27.956;2023-01-29T13:25:34;99248.75;;;0.16;75.29
18697;BME280;22617;43.690;27.956;2023-01-29T13:30:38;99240.19;;;0.16;75.74
18697;BME280;22617;43.690;27.956;2023-01-29T13:35:44;99239.22;;;0.34;75.72
18697;BME280;22617;43.690;27.956;2023-01-29T13:40:49;99248.19;;;0.23;76.49
18697;BME280;22617;43.690;27.956;2023-01-29T13:45:53;99247.00;;;0.15;77.13
18697;BME280;22617;43.690;27.956;2023-01-29T13:51:01;99251.13;;;0.12;77.66
18697;BME280;22617;43.690;27.956;2023-01-29T13:56:34;99253.78;;;0.15;77.74
18697;BME280;22617;43.690;27.956;2023-01-29T14:02:00;99258.81;;;0.12;78.25
18697;BME280;22617;43.690;27.956;2023-01-29T14:07:47;99260.00;;;-0.01;79.17
18697;BME280;22617;43.690;27.956;2023-01-29T14:12:53;99255.88;;;0.03;79.36
18697;BME280;22617;43.690;27.956;2023-01-29T14:18:12;99258.78;;;-0.09;79.54
18697;BME280;22617;43.690;27.956;2023-01-29T14:23:30;99260.53;;;-0.08;80.21
18697;BME280;22617;43.690;27.956;2023-01-29T14:28:36;99259.25;;;0.02;80.45
18697;BME280;22617;43.690;27.956;2023-01-29T14:33:41;99263.88;;;-0.11;80.66
18697;BME280;22617;43.690;27.956;2023-01-29T14:38:48;99270.78;;;-0.08;81.12
18697;BME280;22617;43.690;27.956;2023-01-29T14:49:51;99282.69;;;-0.10;81.75
18697;BME280;22617;43.690;27.956;2023-01-29T14:54:59;99278.84;;;-0.20;81.49
18697;BME280;22617;43.690;27.956;2023-01-29T15:00:14;99276.75;;;-0.28;81.89
18697;BME280;22617;43.690;27.956;2023-01-29T15:05:23;99279.66;;;-0.21;82.73
18697;BME280;22617;43.690;27.956;2023-01-29T15:10:37;99286.88;;;-0.31;82.69
18697;BME280;22617;43.690;27.956;2023-01-29T15:15:46;99281.47;;;-0.37;82.88
18697;BME280;22617;43.690;27.956;2023-01-29T15:21:00;99287.88;;;-0.28;83.00
18697;BME280;22617;43.690;27.956;2023-01-29T15:26:09;99287.75;;;-0.31;82.76
18697;BME280;22617;43.690;27.956;2023-01-29T15:31:17;99287.47;;;-0.37;83.18
18697;BME280;22617;43.690;27.956;2023-01-29T15:36:23;99286.00;;;-0.32;83.26
18697;BME280;22617;43.690;27.956;2023-01-29T15:41:29;99301.50;;;-0.29;83.44
18697;BME280;22617;43.690;27.956;2023-01-29T15:46:35;99305.56;;;-0.34;83.22
18697;BME280;22617;43.690;27.956;2023-01-29T15:51:42;99304.59;;;-0.36;83.50
18697;BME280;22617;43.690;27.956;2023-01-29T15:56:50;99311.75;;;-0.29;83.66
18697;BME280;22617;43.690;27.956;2023-01-29T16:01:54;99313.88;;;-0.38;83.58
18697;BME280;22617;43.690;27.956;2023-01-29T16:06:59;99316.44;;;-0.38;83.54
18697;BME280;22617;43.690;27.956;2023-01-29T16:12:08;99316.44;;;-0.38;82.97
18697;BME280;22617;43.690;27.956;2023-01-29T16:17:22;99329.66;;;-0.29;83.10
18697;BME280;22617;43.690;27.956;2023-01-29T16:22:30;99322.59;;;-0.34;82.73
18697;BME280;22617;43.690;27.956;2023-01-29T16:27:37;99335.19;;;-0.39;82.75
18697;BME280;22617;43.690;27.956;2023-01-29T16:32:44;99324.06;;;-0.39;82.73
18697;BME280;22617;43.690;27.956;2023-01-29T16:37:50;99321.56;;;-0.38;82.75
18697;BME280;22617;43.690;27.956;2023-01-29T16:48:35;99334.50;;;-0.35;82.81
18697;BME280;22617;43.690;27.956;2023-01-29T16:53:39;99334.25;;;-0.41;82.78
18697;BME280;22617;43.690;27.956;2023-01-29T16:58:50;99339.44;;;-0.39;82.63
18697;BME280;22617;43.690;27.956;2023-01-29T17:04:00;99337.13;;;-0.33;82.33
18697;BME280;22617;43.690;27.956;2023-01-29T17:09:18;99337.00;;;-0.36;82.61
18697;BME280;22617;43.690;27.956;2023-01-29T17:14:29;99335.63;;;-0.48;82.33
18697;BME280;22617;43.690;27.956;2023-01-29T17:19:34;99333.84;;;-0.31;82.21
18697;BME280;22617;43.690;27.956;2023-01-29T17:24:38;99336.91;;;-0.38;81.67
18697;BME280;22617;43.690;27.956;2023-01-29T17:29:44;99334.34;;;-0.38;81.94
18697;BME280;22617;43.690;27.956;2023-01-29T17:34:48;99342.38;;;-0.50;82.07
18697;BME280;22617;43.690;27.956;2023-01-29T17:39:56;99338.00;;;-0.52;81.76
18697;BME280;22617;43.690;27.956;2023-01-29T17:45:06;99344.06;;;-0.50;81.88
18697;BME280;22617;43.690;27.956;2023-01-29T17:50:21;99333.72;;;-0.34;82.02
18697;BME280;22617;43.690;27.956;2023-01-29T17:55:26;99343.94;;;-0.34;81.58
18697;BME280;22617;43.690;27.956;2023-01-29T18:00:31;99341.25;;;-0.37;81.63
18697;BME280;22617;43.690;27.956;2023-01-29T18:05:36;99348.31;;;-0.51;81.83
18697;BME280;22617;43.690;27.956;2023-01-29T18:10:44;99348.38;;;-0.49;81.67
18697;BME280;22617;43.690;27.956;2023-01-29T18:15:53;99353.50;;;-0.49;81.90
18697;BME280;22617;43.690;27.956;2023-01-29T18:20:58;99351.53;;;-0.55;81.79
18697;BME280;22617;43.690;27.956;2023-01-29T18:26:02;99355.50;;;-0.42;81.67
18697;BME280;22617;43.690;27.956;2023-01-29T18:31:12;99351.94;;;-0.46;81.65
18697;BME280;22617;43.690;27.956;2023-01-29T18:36:16;99351.47;;;-0.56;81.66
18697;BME280;22617;43.690;27.956;2023-01-29T18:41:20;99343.94;;;-0.53;81.78
18697;BME280;22617;43.690;27.956;2023-01-29T18:46:28;99348.78;;;-0.59;81.59
18697;BME280;22617;43.690;27.956;2023-01-29T18:51:33;99349.56;;;-0.60;81.47
18697;BME280;22617;43.690;27.956;2023-01-29T18:56:37;99350.88;;;-0.51;81.14
18697;BME280;22617;43.690;27.956;2023-01-29T19:02:05;99352.47;;;-0.53;80.93
18697;BME280;22617;43.690;27.956;2023-01-29T19:07:09;99346.56;;;-0.52;81.00
18697;BME280;22617;43.690;27.956;2023-01-29T19:12:15;99351.66;;;-0.52;81.11
18697;BME280;22617;43.690;27.956;2023-01-29T19:17:21;99354.81;;;-0.57;80.71
18697;BME280;22617;43.690;27.956;2023-01-29T19:22:27;99357.19;;;-0.62;80.79
18697;BME280;22617;43.690;27.956;2023-01-29T19:27:34;99354.81;;;-0.57;80.79
18697;BME280;22617;43.690;27.956;2023-01-29T19:32:42;99344.59;;;-0.57;80.76
18697;BME280;22617;43.690;27.956;2023-01-29T19:37:47;99344.59;;;-0.57;80.47
18697;BME280;22617;43.690;27.956;2023-01-29T19:42:52;99346.88;;;-0.63;80.55
18697;BME280;22617;43.690;27.956;2023-01-29T19:47:58;99341.22;;;-0.56;80.48
18697;BME280;22617;43.690;27.956;2023-01-29T19:53:02;99343.44;;;-0.64;80.41
18697;BME280;22617;43.690;27.956;2023-01-29T19:58:09;99342.50;;;-0.66;80.03
18697;BME280;22617;43.690;27.956;2023-01-29T20:03:15;99352.25;;;-0.57;80.20
18697;BME280;22617;43.690;27.956;2023-01-29T20:08:19;99346.59;;;-0.69;79.61
18697;BME280;22617;43.690;27.956;2023-01-29T20:13:25;99360.56;;;-0.63;79.60
18697;BME280;22617;43.690;27.956;2023-01-29T20:18:31;99360.13;;;-0.72;79.73
18697;BME280;22617;43.690;27.956;2023-01-29T20:23:35;99358.06;;;-0.61;79.75
18697;BME280;22617;43.690;27.956;2023-01-29T20:28:40;99360.41;;;-0.66;79.48
18697;BME280;22617;43.690;27.956;2023-01-29T20:33:46;99363.78;;;-0.67;79.22
18697;BME280;22617;43.690;27.956;2023-01-29T20:38:50;99354.19;;;-0.71;79.00
18697;BME280;22617;43.690;27.956;2023-01-29T20:43:57;99360.88;;;-0.74;79.58
18697;BME280;22617;43.690;27.956;2023-01-29T20:49:02;99352.94;;;-0.61;79.18
18697;BME280;22617;43.690;27.956;2023-01-29T20:54:08;99357.72;;;-0.69;79.08
18697;BME280;22617;43.690;27.956;2023-01-29T20:59:14;99371.91;;;-0.75;79.19
18697;BME280;22617;43.690;27.956;2023-01-29T21:04:20;99371.09;;;-0.74;79.54
18697;BME280;22617;43.690;27.956;2023-01-29T21:09:24;99366.13;;;-0.71;79.02
18697;BME280;22617;43.690;27.956;2023-01-29T21:14:28;99362.75;;;-0.70;79.52
18697;BME280;22617;43.690;27.956;2023-01-29T21:19:33;99371.22;;;-0.71;79.06
18697;BME280;22617;43.690;27.956;2023-01-29T21:24:37;99355.00;;;-0.72;79.12
18697;BME280;22617;43.690;27.956;2023-01-29T21:29:41;99366.00;;;-0.74;79.26
18697;BME280;22617;43.690;27.956;2023-01-29T21:34:46;99355.25;;;-0.67;79.47
18697;BME280;22617;43.690;27.956;2023-01-29T21:39:53;99349.94;;;-0.90;79.41
18697;BME280;22617;43.690;27.956;2023-01-29T21:44:57;99351.81;;;-0.85;79.35
18697;BME280;22617;43.690;27.956;2023-01-29T21:50:02;99353.16;;;-0.94;79.83
18697;BME280;22617;43.690;27.956;2023-01-29T21:55:07;99338.72;;;-0.74;79.66
18697;BME280;22617;43.690;27.956;2023-01-29T22:00:11;99332.97;;;-0.88;79.67
18697;BME280;22617;43.690;27.956;2023-01-29T22:05:17;99328.28;;;-0.78;79.88
18697;BME280;22617;43.690;27.956;2023-01-29T22:10:21;99322.88;;;-0.84;79.89
18697;BME280;22617;43.690;27.956;2023-01-29T22:15:25;99325.44;;;-0.84;80.08
18697;BME280;22617;43.690;27.956;2023-01-29T22:20:30;99316.59;;;-0.91;79.99
18697;BME280;22617;43.690;27.956;2023-01-29T22:25:34;99324.34;;;-0.90;79.72
18697;BME280;22617;43.690;27.956;2023-01-29T22:30:38;99321.28;;;-0.82;79.60
18697;BME280;22617;43.690;27.956;2023-01-29T22:35:43;99315.06;;;-0.88;79.63
18697;BME280;22617;43.690;27.956;2023-01-29T22:40:48;99314.53;;;-0.80;79.17
18697;BME280;22617;43.690;27.956;2023-01-29T22:45:52;99316.75;;;-0.88;79.42
18697;BME280;22617;43.690;27.956;2023-01-29T22:50:59;99308.91;;;-0.91;79.30
18697;BME280;22617;43.690;27.956;2023-01-29T22:56:11;99299.47;;;-0.74;79.76
18697;BME280;22617;43.690;27.956;2023-01-29T23:01:16;99288.72;;;-0.67;79.14
18697;BME280;22617;43.690;27.956;2023-01-29T23:06:22;99284.59;;;-0.64;79.39
18697;BME280;22617;43.690;27.956;2023-01-29T23:11:26;99276.56;;;-0.71;78.94
18697;BME280;22617;43.690;27.956;2023-01-29T23:16:29;99298.06;;;-1.05;79.57
18697;BME280;22617;43.690;27.956;2023-01-29T23:21:35;99287.09;;;-1.02;80.11
18697;BME280;22617;43.690;27.956;2023-01-29T23:26:38;99301.72;;;-0.80;79.55
18697;BME280;22617;43.690;27.956;2023-01-29T23:32:00;99297.66;;;-0.77;79.22
18697;BME280;22617;43.690;27.956;2023-01-29T23:37:06;99286.59;;;-0.76;79.28
18697;BME280;22617;43.690;27.956;2023-01-29T23:42:10;99293.00;;;-0.66;79.19
18697;BME280;22617;43.690;27.956;2023-01-29T23:47:14;99283.78;;;-0.82;79.21
18697;BME280;22617;43.690;27.956;2023-01-29T23:52:19;99282.91;;;-0.82;79.51
18697;BME280;22617;43.690;27.956;2023-01-29T23:57:23;99284.28;;;-0.89;79.00
